sensor_id;sensor_type;location;lat;lon;timestamp;P1;durP1;ratioP1;P2;durP2;ratioP2
71821;SDS011;64096;52.548;13.406;2023-05-14T06:01:20;6.45;;;4.45;;
71821;SDS011;64096;52.548;13.406;2023-05-14T06:03:46;6.35;;;3.85;;
71821;SDS011;64096;52.548;13.406;2023-05-14T06:06:12;5.85;;;3.97;;
71821;SDS011;64096;52.548;13.406;2023-05-14T06:08:39;5.50;;;3.63;;
71821;SDS011;64096;52.548;13.406;2023-05-14T06:11:06;5.32;;;3.63;;
71821;SDS011;64096;52.548;13.406;2023-05-14T06:13:32;7.28;;;3.70;;
71821;SDS011;64096;52.548;13.406;2023-05-14T06:15:58;6.65;;;3.88;;
71821;SDS011;64096;52.548;13.406;2023-05-14T06:18:24;6.20;;;3.58;;
71821;SDS011;64096;52.548;13.406;2023-05-14T06:20:51;7.40;;;4.30;;
71821;SDS011;64096;52.548;13.406;2023-05-14T06:23:17;5.65;;;3.50;;
71821;SDS011;64096;52.548;13.406;2023-05-14T06:25:43;6.22;;;3.90;;
71821;SDS011;64096;52.548;13.406;2023-05-14T06:28:09;6.03;;;3.80;;
71821;SDS011;64096;52.548;13.406;2023-05-14T06:30:35;6.25;;;3.50;;
71821;SDS011;64096;52.548;13.406;2023-05-14T06:33:01;5.13;;;3.03;;
71821;SDS011;64096;52.548;13.406;2023-05-14T06:35:27;5.25;;;3.58;;
71821;SDS011;64096;52.548;13.406;2023-05-14T06:37:53;5.28;;;3.40;;
71821;SDS011;64096;52.548;13.406;2023-05-14T06:40:19;5.50;;;3.50;;
71821;SDS011;64096;52.548;13.406;2023-05-14T06:42:45;5.60;;;3.55;;
71821;SDS011;64096;52.548;13.406;2023-05-14T06:45:11;5.75;;;3.38;;
71821;SDS011;64096;52.548;13.406;2023-05-14T06:47:37;5.43;;;3.17;;
71821;SDS011;64096;52.548;13.406;2023-05-14T06:50:04;5.13;;;3.25;;
71821;SDS011;64096;52.548;13.406;2023-05-14T06:52:30;4.10;;;2.80;;
71821;SDS011;64096;52.548;13.406;2023-05-14T06:54:56;5.68;;;3.03;;
71821;SDS011;64096;52.548;13.406;2023-05-14T06:57:22;6.10;;;3.42;;
71821;SDS011;64096;52.548;13.406;2023-05-14T06:59:48;4.82;;;3.20;;
71821;SDS011;64096;52.548;13.406;2023-05-14T07:02:14;6.15;;;3.45;;
71821;SDS011;64096;52.548;13.406;2023-05-14T07:04:40;5.15;;;3.00;;
71821;SDS011;64096;52.548;13.406;2023-05-14T07:07:06;5.28;;;2.90;;
71821;SDS011;64096;52.548;13.406;2023-05-14T07:09:34;5.88;;;3.22;;
71821;SDS011;64096;52.548;13.406;2023-05-14T07:12:00;4.35;;;2.83;;
71821;SDS011;64096;52.548;13.406;2023-05-14T07:14:26;4.97;;;3.10;;
71821;SDS011;64096;52.548;13.406;2023-05-14T07:16:52;7.03;;;3.35;;
71821;SDS011;64096;52.548;13.406;2023-05-14T07:19:18;4.47;;;3.08;;
71821;SDS011;64096;52.548;13.406;2023-05-14T07:21:44;4.35;;;3.00;;
71821;SDS011;64096;52.548;13.406;2023-05-14T07:24:10;4.43;;;2.88;;
71821;SDS011;64096;52.548;13.406;2023-05-14T07:26:36;5.30;;;2.85;;
71821;SDS011;64096;52.548;13.406;2023-05-14T07:29:03;5.88;;;3.03;;
71821;SDS011;64096;52.548;13.406;2023-05-14T07:31:29;4.82;;;2.95;;
71821;SDS011;64096;52.548;13.406;2023-05-14T07:33:55;4.97;;;2.80;;
71821;SDS011;64096;52.548;13.406;2023-05-14T07:36:21;5.53;;;2.50;;
71821;SDS011;64096;52.548;13.406;2023-05-14T07:38:47;4.57;;;2.75;;
71821;SDS011;64096;52.548;13.406;2023-05-14T07:41:13;4.78;;;2.70;;
71821;SDS011;64096;52.548;13.406;2023-05-14T07:43:39;4.20;;;2.60;;
71821;SDS011;64096;52.548;13.406;2023-05-14T07:46:05;4.55;;;2.45;;
71821;SDS011;64096;52.548;13.406;2023-05-14T07:48:31;4.88;;;3.10;;
71821;SDS011;64096;52.548;13.406;2023-05-14T07:50:57;4.30;;;3.00;;
71821;SDS011;64096;52.548;13.406;2023-05-14T07:53:23;5.07;;;3.03;;
71821;SDS011;64096;52.548;13.406;2023-05-14T07:55:50;3.88;;;2.35;;
71821;SDS011;64096;52.548;13.406;2023-05-14T07:58:16;4.07;;;2.60;;
71821;SDS011;64096;52.548;13.406;2023-05-14T08:00:42;5.75;;;2.88;;
71821;SDS011;64096;52.548;13.406;2023-05-14T08:03:08;5.32;;;2.70;;
71821;SDS011;64096;52.548;13.406;2023-05-14T08:05:34;5.57;;;2.80;;
71821;SDS011;64096;52.548;13.406;2023-05-14T08:08:00;4.05;;;2.72;;
71821;SDS011;64096;52.548;13.406;2023-05-14T08:10:26;5.32;;;2.85;;
71821;SDS011;64096;52.548;13.406;2023-05-14T08:12:52;5.30;;;2.60;;
71821;SDS011;64096;52.548;13.406;2023-05-14T08:15:18;5.43;;;3.13;;
71821;SDS011;64096;52.548;13.406;2023-05-14T08:17:45;6.20;;;3.28;;
71821;SDS011;64096;52.548;13.406;2023-05-14T08:20:11;4.47;;;2.65;;
71821;SDS011;64096;52.548;13.406;2023-05-14T08:22:37;5.22;;;2.85;;
71821;SDS011;64096;52.548;13.406;2023-05-14T08:25:03;7.78;;;2.50;;
71821;SDS011;64096;52.548;13.406;2023-05-14T08:27:30;4.78;;;2.60;;
71821;SDS011;64096;52.548;13.406;2023-05-14T08:29:57;4.63;;;2.55;;
71821;SDS011;64096;52.548;13.406;2023-05-14T08:32:23;4.32;;;2.88;;
71821;SDS011;64096;52.548;13.406;2023-05-14T08:34:49;4.63;;;2.75;;
71821;SDS011;64096;52.548;13.406;2023-05-14T08:37:15;4.85;;;2.70;;
71821;SDS011;64096;52.548;13.406;2023-05-14T08:39:41;4.43;;;2.63;;
71821;SDS011;64096;52.548;13.406;2023-05-14T08:42:07;4.68;;;3.00;;
71821;SDS011;64096;52.548;13.406;2023-05-14T08:47:09;4.00;;;2.30;;
71821;SDS011;64096;52.548;13.406;2023-05-14T08:49:39;3.85;;;2.60;;
71821;SDS011;64096;52.548;13.406;2023-05-14T08:52:06;6.13;;;2.97;;
71821;SDS011;64096;52.548;13.406;2023-05-14T08:54:32;4.07;;;2.58;;
71821;SDS011;64096;52.548;13.406;2023-05-14T08:56:58;4.13;;;2.67;;
71821;SDS011;64096;52.548;13.406;2023-05-14T08:59:24;4.75;;;2.58;;
71821;SDS011;64096;52.548;13.406;2023-05-14T09:01:51;4.38;;;2.25;;
71821;SDS011;64096;52.548;13.406;2023-05-14T09:04:22;3.70;;;2.50;;
71821;SDS011;64096;52.548;13.406;2023-05-14T09:06:49;3.60;;;2.15;;
71821;SDS011;64096;52.548;13.406;2023-05-14T09:09:15;3.67;;;2.38;;
71821;SDS011;64096;52.548;13.406;2023-05-14T09:11:42;2.90;;;2.22;;
71821;SDS011;64096;52.548;13.406;2023-05-14T09:14:10;4.70;;;2.50;;
71821;SDS011;64096;52.548;13.406;2023-05-14T09:16:36;5.35;;;2.90;;
71821;SDS011;64096;52.548;13.406;2023-05-14T09:19:03;4.28;;;2.85;;
71821;SDS011;64096;52.548;13.406;2023-05-14T09:21:30;4.47;;;2.40;;
71821;SDS011;64096;52.548;13.406;2023-05-14T09:23:56;4.53;;;2.60;;
71821;SDS011;64096;52.548;13.406;2023-05-14T09:26:23;3.95;;;2.25;;
71821;SDS011;64096;52.548;13.406;2023-05-14T09:28:53;3.72;;;2.30;;
71821;SDS011;64096;52.548;13.406;2023-05-14T09:31:20;4.05;;;2.30;;
71821;SDS011;64096;52.548;13.406;2023-05-14T09:33:49;4.63;;;2.63;;
71821;SDS011;64096;52.548;13.406;2023-05-14T09:36:16;3.55;;;2.35;;
71821;SDS011;64096;52.548;13.406;2023-05-14T09:38:42;4.07;;;2.22;;
71821;SDS011;64096;52.548;13.406;2023-05-14T09:41:08;3.53;;;2.15;;
71821;SDS011;64096;52.548;13.406;2023-05-14T09:43:34;4.07;;;2.30;;
71821;SDS011;64096;52.548;13.406;2023-05-14T09:46:00;4.05;;;2.72;;
71821;SDS011;64096;52.548;13.406;2023-05-14T09:48:27;3.42;;;2.30;;
71821;SDS011;64096;52.548;13.406;2023-05-14T09:50:53;4.22;;;2.72;;
71821;SDS011;64096;52.548;13.406;2023-05-14T09:53:19;4.85;;;2.30;;
71821;SDS011;64096;52.548;13.406;2023-05-14T09:55:45;3.28;;;2.20;;
71821;SDS011;64096;52.548;13.406;2023-05-14T09:58:13;5.55;;;2.40;;
71821;SDS011;64096;52.548;13.406;2023-05-14T10:00:42;3.40;;;2.40;;
71821;SDS011;64096;52.548;13.406;2023-05-14T10:03:09;4.65;;;2.33;;
71821;SDS011;64096;52.548;13.406;2023-05-14T10:05:37;4.05;;;2.38;;
71821;SDS011;64096;52.548;13.406;2023-05-14T10:08:11;4.50;;;2.53;;
71821;SDS011;64096;52.548;13.406;2023-05-14T10:10:38;4.20;;;2.60;;
71821;SDS011;64096;52.548;13.406;2023-05-14T10:13:06;4.38;;;2.40;;
71821;SDS011;64096;52.548;13.406;2023-05-14T10:15:37;3.28;;;2.03;;
71821;SDS011;64096;52.548;13.406;2023-05-14T10:18:08;5.35;;;2.63;;
71821;SDS011;64096;52.548;13.406;2023-05-14T10:20:35;5.40;;;2.88;;
71821;SDS011;64096;52.548;13.406;2023-05-14T10:23:02;5.45;;;2.90;;
71821;SDS011;64096;52.548;13.406;2023-05-14T10:25:28;4.40;;;2.55;;
71821;SDS011;64096;52.548;13.406;2023-05-14T10:27:55;5.00;;;2.90;;
71821;SDS011;64096;52.548;13.406;2023-05-14T10:30:21;7.60;;;3.20;;
71821;SDS011;64096;52.548;13.406;2023-05-14T10:32:47;5.57;;;3.22;;
71821;SDS011;64096;52.548;13.406;2023-05-14T10:35:14;4.70;;;2.85;;
71821;SDS011;64096;52.548;13.406;2023-05-14T10:37:40;5.22;;;2.80;;
71821;SDS011;64096;52.548;13.406;2023-05-14T10:40:06;3.85;;;2.60;;
71821;SDS011;64096;52.548;13.406;2023-05-14T10:42:34;4.28;;;2.70;;
71821;SDS011;64096;52.548;13.406;2023-05-14T10:45:04;4.63;;;2.55;;
71821;SDS011;64096;52.548;13.406;2023-05-14T10:47:32;4.97;;;2.60;;
71821;SDS011;64096;52.548;13.406;2023-05-14T10:49:58;6.47;;;3.00;;
71821;SDS011;64096;52.548;13.406;2023-05-14T10:52:28;4.60;;;2.58;;
71821;SDS011;64096;52.548;13.406;2023-05-14T10:54:55;4.45;;;2.67;;
71821;SDS011;64096;52.548;13.406;2023-05-14T10:57:23;4.18;;;2.63;;
71821;SDS011;64096;52.548;13.406;2023-05-14T10:59:50;3.70;;;2.33;;
71821;SDS011;64096;52.548;13.406;2023-05-14T11:02:38;5.28;;;2.80;;
71821;SDS011;64096;52.548;13.406;2023-05-14T11:05:06;4.97;;;2.88;;
71821;SDS011;64096;52.548;13.406;2023-05-14T11:10:00;5.45;;;3.05;;
71821;SDS011;64096;52.548;13.406;2023-05-14T11:12:27;4.00;;;2.83;;
71821;SDS011;64096;52.548;13.406;2023-05-14T11:14:55;5.07;;;2.80;;
71821;SDS011;64096;52.548;13.406;2023-05-14T11:17:22;4.43;;;2.53;;
71821;SDS011;64096;52.548;13.406;2023-05-14T11:19:48;4.68;;;2.65;;
71821;SDS011;64096;52.548;13.406;2023-05-14T11:22:15;4.20;;;2.72;;
71821;SDS011;64096;52.548;13.406;2023-05-14T11:24:41;4.13;;;2.80;;
71821;SDS011;64096;52.548;13.406;2023-05-14T11:27:07;4.20;;;2.28;;
71821;SDS011;64096;52.548;13.406;2023-05-14T11:29:36;4.68;;;2.53;;
71821;SDS011;64096;52.548;13.406;2023-05-14T11:32:04;5.40;;;2.50;;
71821;SDS011;64096;52.548;13.406;2023-05-14T11:34:31;4.28;;;2.70;;
71821;SDS011;64096;52.548;13.406;2023-05-14T11:36:58;4.03;;;2.58;;
71821;SDS011;64096;52.548;13.406;2023-05-14T11:39:27;4.95;;;3.10;;
71821;SDS011;64096;52.548;13.406;2023-05-14T11:41:53;7.75;;;3.22;;
71821;SDS011;64096;52.548;13.406;2023-05-14T11:44:19;4.45;;;2.80;;
71821;SDS011;64096;52.548;13.406;2023-05-14T11:46:52;6.45;;;3.33;;
71821;SDS011;64096;52.548;13.406;2023-05-14T11:49:20;4.60;;;2.67;;
71821;SDS011;64096;52.548;13.406;2023-05-14T11:51:46;4.63;;;2.70;;
71821;SDS011;64096;52.548;13.406;2023-05-14T11:54:13;4.22;;;2.50;;
71821;SDS011;64096;52.548;13.406;2023-05-14T11:56:39;4.22;;;2.40;;
71821;SDS011;64096;52.548;13.406;2023-05-14T11:59:05;4.60;;;3.10;;
71821;SDS011;64096;52.548;13.406;2023-05-14T12:01:37;4.47;;;3.10;;
71821;SDS011;64096;52.548;13.406;2023-05-14T12:04:03;5.53;;;2.97;;
71821;SDS011;64096;52.548;13.406;2023-05-14T12:06:30;4.35;;;2.70;;
71821;SDS011;64096;52.548;13.406;2023-05-14T12:08:56;4.70;;;2.60;;
71821;SDS011;64096;52.548;13.406;2023-05-14T12:11:22;5.05;;;2.60;;
71821;SDS011;64096;52.548;13.406;2023-05-14T12:13:48;3.83;;;2.55;;
71821;SDS011;64096;52.548;13.406;2023-05-14T12:16:15;5.53;;;3.15;;
71821;SDS011;64096;52.548;13.406;2023-05-14T12:18:42;4.95;;;2.80;;
71821;SDS011;64096;52.548;13.406;2023-05-14T12:21:08;3.97;;;2.53;;
71821;SDS011;64096;52.548;13.406;2023-05-14T12:23:37;4.72;;;3.13;;
71821;SDS011;64096;52.548;13.406;2023-05-14T12:26:07;3.80;;;2.60;;
71821;SDS011;64096;52.548;13.406;2023-05-14T12:28:33;5.05;;;3.30;;
71821;SDS011;64096;52.548;13.406;2023-05-14T12:31:00;4.50;;;2.80;;
71821;SDS011;64096;52.548;13.406;2023-05-14T12:33:26;4.28;;;2.92;;
71821;SDS011;64096;52.548;13.406;2023-05-14T12:35:52;4.63;;;3.10;;
71821;SDS011;64096;52.548;13.406;2023-05-14T12:38:25;6.15;;;2.95;;
71821;SDS011;64096;52.548;13.406;2023-05-14T12:40:51;5.70;;;3.13;;
71821;SDS011;64096;52.548;13.406;2023-05-14T12:43:17;5.82;;;3.22;;
71821;SDS011;64096;52.548;13.406;2023-05-14T12:45:43;4.30;;;3.13;;
71821;SDS011;64096;52.548;13.406;2023-05-14T12:48:09;4.75;;;2.85;;
71821;SDS011;64096;52.548;13.406;2023-05-14T12:50:37;5.43;;;2.90;;
71821;SDS011;64096;52.548;13.406;2023-05-14T12:53:03;4.80;;;2.70;;
71821;SDS011;64096;52.548;13.406;2023-05-14T12:55:29;3.83;;;2.20;;
71821;SDS011;64096;52.548;13.406;2023-05-14T12:57:55;4.13;;;2.65;;
71821;SDS011;64096;52.548;13.406;2023-05-14T13:00:21;5.22;;;2.60;;
71821;SDS011;64096;52.548;13.406;2023-05-14T13:02:48;4.05;;;2.38;;
71821;SDS011;64096;52.548;13.406;2023-05-14T13:05:14;4.72;;;2.67;;
71821;SDS011;64096;52.548;13.406;2023-05-14T13:07:40;5.68;;;2.80;;
71821;SDS011;64096;52.548;13.406;2023-05-14T13:10:06;4.65;;;2.90;;
71821;SDS011;64096;52.548;13.406;2023-05-14T13:12:34;4.50;;;2.67;;
71821;SDS011;64096;52.548;13.406;2023-05-14T13:15:00;4.40;;;2.60;;
71821;SDS011;64096;52.548;13.406;2023-05-14T13:17:26;4.60;;;2.60;;
71821;SDS011;64096;52.548;13.406;2023-05-14T13:19:52;5.45;;;2.67;;
71821;SDS011;64096;52.548;13.406;2023-05-14T13:22:18;5.30;;;2.67;;
71821;SDS011;64096;52.548;13.406;2023-05-14T13:24:44;5.63;;;2.92;;
71821;SDS011;64096;52.548;13.406;2023-05-14T13:27:10;5.47;;;3.38;;
71821;SDS011;64096;52.548;13.406;2023-05-14T13:29:36;3.90;;;2.17;;
71821;SDS011;64096;52.548;13.406;2023-05-14T13:32:02;3.60;;;2.70;;
71821;SDS011;64096;52.548;13.406;2023-05-14T13:34:28;4.50;;;2.60;;
71821;SDS011;64096;52.548;13.406;2023-05-14T13:36:54;4.45;;;2.22;;
71821;SDS011;64096;52.548;13.406;2023-05-14T13:39:21;5.07;;;2.50;;
71821;SDS011;64096;52.548;13.406;2023-05-14T13:41:50;4.47;;;3.03;;
71821;SDS011;64096;52.548;13.406;2023-05-14T13:44:16;4.30;;;2.30;;
71821;SDS011;64096;52.548;13.406;2023-05-14T13:46:43;4.35;;;2.60;;
71821;SDS011;64096;52.548;13.406;2023-05-14T13:49:09;5.40;;;2.50;;
71821;SDS011;64096;52.548;13.406;2023-05-14T13:51:35;4.00;;;2.33;;
71821;SDS011;64096;52.548;13.406;2023-05-14T13:54:02;4.32;;;2.20;;
71821;SDS011;64096;52.548;13.406;2023-05-14T13:56:28;4.22;;;2.80;;
71821;SDS011;64096;52.548;13.406;2023-05-14T13:58:54;4.65;;;2.53;;
